createdAt,value
2023-05-11T00:00:16.504Z,89.70
2023-05-11T00:02:48.598Z,90.00
2023-05-11T00:05:22.120Z,89.89
2023-05-11T00:07:53.885Z,89.62
2023-05-11T00:10:25.602Z,89.89
2023-05-11T00:12:57.891Z,89.85
2023-05-11T00:15:29.991Z,90.04
2023-05-11T00:18:01.813Z,89.67
2023-05-11T00:20:35.070Z,89.79
2023-05-11T00:23:06.890Z,89.50
2023-05-11T00:25:39.920Z,89.63
2023-05-11T00:28:11.564Z,90.26
2023-05-11T00:30:45.338Z,90.02
2023-05-11T00:33:17.146Z,90.58
2023-05-11T00:35:50.481Z,90.19
2023-05-11T00:38:22.320Z,89.54
2023-05-11T00:40:54.236Z,90.54
2023-05-11T00:43:26.190Z,90.36
2023-05-11T00:45:57.974Z,90.75
2023-05-11T00:48:29.793Z,90.58
2023-05-11T00:51:05.078Z,90.07
2023-05-11T00:53:37.330Z,90.18
2023-05-11T00:56:11.366Z,90.05
2023-05-11T00:58:43.464Z,89.72
2023-05-11T01:01:17.825Z,89.83
2023-05-11T01:03:50.275Z,90.00
2023-05-11T01:06:36.179Z,89.98
2023-05-11T01:09:15.793Z,90.07
2023-05-11T01:11:54.735Z,90.86
2023-05-11T01:14:35.683Z,90.57
2023-05-11T01:17:22.888Z,90.06
2023-05-11T01:20:04.056Z,90.01
2023-05-11T01:22:57.695Z,91.25
2023-05-11T01:25:51.364Z,91.47
2023-05-11T01:28:59.127Z,91.36
2023-05-11T01:31:34.938Z,90.66
2023-05-11T01:34:14.138Z,90.49
2023-05-11T01:36:54.668Z,91.42
2023-05-11T01:39:37.033Z,90.59
2023-05-11T01:42:13.618Z,90.89
2023-05-11T01:44:49.492Z,91.41
2023-05-11T01:47:26.183Z,91.03
2023-05-11T01:50:01.912Z,90.74
2023-05-11T01:52:36.610Z,90.37
2023-05-11T01:55:11.323Z,91.19
2023-05-11T01:57:43.286Z,90.53
2023-05-11T02:00:17.406Z,90.79
2023-05-11T02:02:52.153Z,91.13
2023-05-11T02:05:43.808Z,90.77
2023-05-11T02:08:17.987Z,90.21
2023-05-11T02:10:51.683Z,90.88
2023-05-11T02:13:28.375Z,90.61
2023-05-11T02:16:02.790Z,91.17
2023-05-11T02:18:40.020Z,90.63
2023-05-11T02:21:16.212Z,91.23
2023-05-11T02:23:51.335Z,90.69
2023-05-11T02:26:23.592Z,90.88
2023-05-11T02:28:55.332Z,91.18
2023-05-11T02:31:33.455Z,91.03
2023-05-11T02:34:18.983Z,91.28
2023-05-11T02:36:54.102Z,90.08
2023-05-11T02:39:32.833Z,90.46
2023-05-11T02:42:12.117Z,91.01
2023-05-11T02:44:46.759Z,89.85
2023-05-11T02:47:22.255Z,89.87
2023-05-11T02:50:00.250Z,89.68
2023-05-11T02:52:35.893Z,90.68
2023-05-11T02:55:10.817Z,91.63
2023-05-11T02:57:43.647Z,90.68
2023-05-11T03:00:17.789Z,91.26
2023-05-11T03:02:49.844Z,91.22
2023-05-11T03:05:24.202Z,90.58
2023-05-11T03:08:00.811Z,90.13
2023-05-11T03:10:33.295Z,89.98
2023-05-11T03:13:06.517Z,90.49
2023-05-11T03:15:38.884Z,90.19
2023-05-11T03:18:12.445Z,90.91
2023-05-11T03:20:48.675Z,90.68
2023-05-11T03:23:22.222Z,90.16
2023-05-11T03:25:54.144Z,90.67
2023-05-11T03:28:29.017Z,90.69
2023-05-11T03:31:01.055Z,90.12
2023-05-11T03:33:32.989Z,90.55
2023-05-11T03:36:10.506Z,89.72
2023-05-11T03:38:42.941Z,90.35
2023-05-11T03:41:18.388Z,90.47
2023-05-11T03:43:53.694Z,89.69
2023-05-11T03:46:28.110Z,90.26
2023-05-11T03:49:00.286Z,90.23
2023-05-11T03:51:35.485Z,89.96
2023-05-11T03:54:09.744Z,90.22
2023-05-11T03:56:41.798Z,90.43
2023-05-11T03:59:17.659Z,90.25
2023-05-11T04:01:52.925Z,90.80
2023-05-11T04:04:31.203Z,90.71
2023-05-11T04:07:04.694Z,89.86
2023-05-11T04:09:36.691Z,90.81
2023-05-11T04:12:11.423Z,91.11
2023-05-11T04:14:43.237Z,91.26
2023-05-11T04:17:14.974Z,91.10
2023-05-11T04:19:46.925Z,90.97
2023-05-11T04:22:19.920Z,91.02
2023-05-11T04:24:51.742Z,90.47
2023-05-11T04:27:23.640Z,90.84
2023-05-11T04:29:56.946Z,90.97
2023-05-11T04:32:29.124Z,90.82
2023-05-11T04:35:00.680Z,90.85
2023-05-11T04:37:33.712Z,90.51
2023-05-11T04:40:05.809Z,90.35
2023-05-11T04:42:37.615Z,91.00
2023-05-11T04:45:11.399Z,90.77
2023-05-11T04:47:43.280Z,90.98
2023-05-11T04:50:16.219Z,90.46
2023-05-11T04:52:49.579Z,91.18
2023-05-11T04:55:21.381Z,90.73
2023-05-11T04:57:53.242Z,90.84
2023-05-11T05:00:25.004Z,91.59
2023-05-11T05:02:56.593Z,91.70
2023-05-11T05:05:28.553Z,92.23
2023-05-11T05:08:01.641Z,91.39
2023-05-11T05:10:33.626Z,92.77
2023-05-11T05:13:05.514Z,92.40
2023-05-11T05:15:37.406Z,92.11
2023-05-11T05:18:09.173Z,93.00
2023-05-11T05:20:41.191Z,93.13
2023-05-11T05:23:14.336Z,93.22
2023-05-11T05:25:46.538Z,94.03
2023-05-11T05:28:18.138Z,93.38
2023-05-11T05:30:50.103Z,92.78
2023-05-11T05:33:21.927Z,93.03
2023-05-11T05:35:53.743Z,93.51
2023-05-11T05:38:26.742Z,92.38
2023-05-11T05:40:58.980Z,93.29
2023-05-11T05:43:30.590Z,92.85
2023-05-11T05:46:02.431Z,93.41
2023-05-11T05:48:34.310Z,93.26
2023-05-11T05:51:06.137Z,94.27
2023-05-11T05:53:39.202Z,94.64
2023-05-11T05:56:11.523Z,94.81
2023-05-11T05:58:44.035Z,94.77
2023-05-11T06:01:15.984Z,94.75
2023-05-11T06:03:48.197Z,94.29
2023-05-11T06:06:20.653Z,94.49
2023-05-11T06:08:54.165Z,95.07
2023-05-11T06:11:25.733Z,94.64
2023-05-11T06:13:57.583Z,94.80
2023-05-11T06:16:30.245Z,95.10
2023-05-11T06:19:02.105Z,94.67
2023-05-11T06:21:33.643Z,94.74
2023-05-11T06:24:06.618Z,94.61
2023-05-11T06:26:38.583Z,95.00
2023-05-11T06:29:10.507Z,94.79
2023-05-11T06:31:42.338Z,94.45
2023-05-11T06:34:14.278Z,94.75
2023-05-11T06:36:46.157Z,94.65
2023-05-11T06:39:19.252Z,95.69
2023-05-11T06:41:56.656Z,95.15
2023-05-11T06:44:29.485Z,95.57
2023-05-11T06:47:01.605Z,94.85
2023-05-11T06:49:33.477Z,95.39
2023-05-11T06:52:05.664Z,95.01
2023-05-11T06:54:38.987Z,95.39
2023-05-11T06:57:12.117Z,95.17
2023-05-11T06:59:44.989Z,95.68
2023-05-11T07:02:16.686Z,96.02
2023-05-11T07:04:48.559Z,95.17
2023-05-11T07:07:20.412Z,95.58
2023-05-11T07:09:53.646Z,95.29
2023-05-11T07:12:25.618Z,95.17
2023-05-11T07:14:57.459Z,95.36
2023-05-11T07:17:29.601Z,95.76
2023-05-11T07:20:01.596Z,95.07
2023-05-11T07:22:33.504Z,94.96
2023-05-11T07:25:06.729Z,95.57
2023-05-11T07:27:38.599Z,95.82
2023-05-11T07:30:10.613Z,94.99
2023-05-11T07:32:42.343Z,95.17
2023-05-11T07:35:15.055Z,95.80
2023-05-11T07:37:46.867Z,95.71
2023-05-11T07:40:20.840Z,95.37
2023-05-11T07:42:54.062Z,95.09
2023-05-11T07:45:25.751Z,95.68
2023-05-11T07:47:57.636Z,95.59
2023-05-11T07:50:29.546Z,96.21
2023-05-11T07:53:01.458Z,95.54
2023-05-11T07:55:35.190Z,95.96
2023-05-11T07:58:07.072Z,95.87
2023-05-11T08:00:38.902Z,95.24
2023-05-11T08:03:10.870Z,94.83
2023-05-11T08:05:42.702Z,95.28
2023-05-11T08:08:15.780Z,95.31
2023-05-11T08:10:49.054Z,95.58
2023-05-11T08:13:20.975Z,95.42
2023-05-11T08:15:52.821Z,95.03
2023-05-11T08:18:27.900Z,94.80
2023-05-11T08:21:00.080Z,95.09
2023-05-11T08:23:32.019Z,95.17
2023-05-11T08:26:05.413Z,94.42
2023-05-11T08:28:37.203Z,94.53
2023-05-11T08:31:10.260Z,94.64
2023-05-11T08:33:42.087Z,94.48
2023-05-11T08:36:13.776Z,94.76
2023-05-11T08:38:45.541Z,94.90
2023-05-11T08:41:18.606Z,94.48
2023-05-11T08:43:51.076Z,95.70
2023-05-11T08:46:27.141Z,95.13
2023-05-11T08:48:59.195Z,95.26
2023-05-11T08:51:32.761Z,95.71
2023-05-11T08:54:06.172Z,95.61
2023-05-11T08:56:42.039Z,95.34
2023-05-11T08:59:18.825Z,95.04
2023-05-11T09:01:53.436Z,95.61
2023-05-11T09:04:27.032Z,95.52
2023-05-11T09:07:01.402Z,95.41
2023-05-11T09:09:34.796Z,94.58
2023-05-11T09:12:08.817Z,94.79
2023-05-11T09:14:40.906Z,94.49
2023-05-11T09:17:12.815Z,94.30
2023-05-11T09:20:05.087Z,94.27
2023-05-11T09:22:42.050Z,94.39
2023-05-11T09:25:18.380Z,94.25
2023-05-11T09:27:52.202Z,94.42
2023-05-11T09:30:26.639Z,94.49
2023-05-11T09:33:02.264Z,94.94
2023-05-11T09:35:37.262Z,95.31
2023-05-11T09:38:12.672Z,94.70
2023-05-11T09:40:51.336Z,94.59
2023-05-11T09:43:29.340Z,94.80
2023-05-11T09:46:07.299Z,95.16
2023-05-11T09:48:39.396Z,95.18
2023-05-11T09:51:12.061Z,94.83
2023-05-11T09:53:46.282Z,95.89
2023-05-11T09:56:18.659Z,95.39
2023-05-11T09:58:57.354Z,95.52
2023-05-11T10:01:37.984Z,95.06
2023-05-11T10:04:22.967Z,95.60
2023-05-11T10:06:56.468Z,95.10
2023-05-11T10:09:29.513Z,95.27
2023-05-11T10:12:02.791Z,95.54
2023-05-11T10:14:37.386Z,95.81
2023-05-11T10:17:11.835Z,95.71
2023-05-11T10:19:43.975Z,95.50
2023-05-11T10:22:16.299Z,96.08
2023-05-11T10:24:49.201Z,95.83
2023-05-11T10:27:22.083Z,95.73
2023-05-11T10:29:56.264Z,96.25
2023-05-11T10:32:29.461Z,96.33
2023-05-11T10:35:04.088Z,96.63
2023-05-11T10:37:37.024Z,96.80
2023-05-11T10:40:11.320Z,96.25
2023-05-11T10:43:19.354Z,97.03
2023-05-11T10:46:03.915Z,95.65
2023-05-11T10:49:08.027Z,97.06
2023-05-11T10:52:13.358Z,97.03
2023-05-11T10:55:02.113Z,96.67
2023-05-11T10:57:53.332Z,96.94
2023-05-11T11:01:28.038Z,96.54
2023-05-11T11:04:06.514Z,96.27
2023-05-11T11:06:40.415Z,96.15
2023-05-11T11:09:14.680Z,95.94
2023-05-11T11:11:50.973Z,96.62
2023-05-11T11:14:26.175Z,96.25
2023-05-11T11:17:31.718Z,96.33
2023-05-11T11:20:07.360Z,95.45
2023-05-11T11:22:49.846Z,94.95
2023-05-11T11:25:57.405Z,95.59
2023-05-11T11:28:29.274Z,95.60
2023-05-11T11:31:27.426Z,95.66
2023-05-11T11:34:19.097Z,95.14
2023-05-11T11:37:10.077Z,95.70
2023-05-11T11:40:09.431Z,95.95
2023-05-11T11:42:48.221Z,95.65
2023-05-11T11:45:33.789Z,95.97
2023-05-11T11:48:21.811Z,95.71
2023-05-11T11:51:06.530Z,96.08
2023-05-11T11:54:09.698Z,96.08
2023-05-11T11:56:46.438Z,95.62
2023-05-11T11:59:20.218Z,96.20
2023-05-11T12:02:01.110Z,96.46
2023-05-11T12:04:51.635Z,96.04
2023-05-11T12:07:27.762Z,95.43
2023-05-11T12:09:59.554Z,95.80
2023-05-11T12:12:31.867Z,96.28
2023-05-11T12:15:06.751Z,96.13
2023-05-11T12:17:41.358Z,95.38
2023-05-11T12:20:18.524Z,95.78
2023-05-11T12:22:52.087Z,95.58
2023-05-11T12:25:24.328Z,95.55
2023-05-11T12:28:00.999Z,95.10
2023-05-11T12:30:36.275Z,95.36
2023-05-11T12:33:15.587Z,95.38
2023-05-11T12:35:52.712Z,94.96
2023-05-11T12:38:26.322Z,95.60
2023-05-11T12:40:58.666Z,95.60
2023-05-11T12:43:30.634Z,95.95
2023-05-11T12:46:04.230Z,95.54
2023-05-11T12:48:36.072Z,94.94
2023-05-11T12:51:07.911Z,94.38
2023-05-11T12:53:43.084Z,94.03
2023-05-11T12:56:14.886Z,93.51
2023-05-11T12:58:46.856Z,93.41
2023-05-11T13:01:28.090Z,92.95
2023-05-11T13:04:00.343Z,93.36
2023-05-11T13:06:32.730Z,93.43
2023-05-11T13:09:04.523Z,92.83
2023-05-11T13:11:37.262Z,92.57
2023-05-11T13:14:19.157Z,92.71
2023-05-11T13:16:59.036Z,92.91
2023-05-11T13:19:34.779Z,93.00
2023-05-11T13:22:08.154Z,92.75
2023-05-11T13:24:40.025Z,93.11
2023-05-11T13:27:11.884Z,93.09
2023-05-11T13:29:43.954Z,92.93
2023-05-11T13:32:16.877Z,93.75
2023-05-11T13:34:48.797Z,93.57
2023-05-11T13:37:20.657Z,93.77
2023-05-11T13:39:52.584Z,94.05
2023-05-11T13:42:24.804Z,94.70
2023-05-11T13:44:56.419Z,94.26
2023-05-11T13:47:29.637Z,93.88
2023-05-11T13:50:02.184Z,94.56
2023-05-11T13:52:34.023Z,94.41
2023-05-11T13:55:08.521Z,94.41
2023-05-11T13:57:40.146Z,93.91
2023-05-11T14:00:12.847Z,93.57
2023-05-11T14:02:48.197Z,93.38
2023-05-11T14:05:20.398Z,93.89
2023-05-11T14:07:52.610Z,94.23
2023-05-11T14:10:24.936Z,94.71
2023-05-11T14:12:56.882Z,95.07
2023-05-11T14:15:28.828Z,94.53
2023-05-11T14:18:03.558Z,94.84
2023-05-11T14:20:37.356Z,95.23
2023-05-11T14:23:09.401Z,95.06
2023-05-11T14:25:41.176Z,95.17
2023-05-11T14:28:13.029Z,94.72
2023-05-11T14:30:44.977Z,93.90
2023-05-11T14:33:18.318Z,94.03
2023-05-11T14:35:50.621Z,94.68
2023-05-11T14:38:22.461Z,94.65
2023-05-11T14:40:54.382Z,94.32
2023-05-11T14:43:26.280Z,93.86
2023-05-11T14:45:58.429Z,94.28
2023-05-11T14:48:31.567Z,93.26
2023-05-11T14:51:03.589Z,93.19
2023-05-11T14:53:35.537Z,94.29
2023-05-11T14:56:07.704Z,93.66
2023-05-11T14:58:39.297Z,93.41
2023-05-11T15:01:11.113Z,93.41
2023-05-11T15:03:44.196Z,93.09
2023-05-11T15:06:21.580Z,93.29
2023-05-11T15:08:53.295Z,93.10
2023-05-11T15:11:25.205Z,92.07
2023-05-11T15:13:57.113Z,91.98
2023-05-11T15:16:29.094Z,91.33
2023-05-11T15:19:02.368Z,91.22
2023-05-11T15:21:34.151Z,91.30
2023-05-11T15:24:07.551Z,91.20
2023-05-11T15:26:41.173Z,90.95
2023-05-11T15:29:12.997Z,90.95
2023-05-11T15:31:44.911Z,90.99
2023-05-11T15:34:17.927Z,91.28
2023-05-11T15:36:50.053Z,90.77
2023-05-11T15:39:21.768Z,90.15
2023-05-11T15:41:53.594Z,90.28
2023-05-11T15:44:25.492Z,90.08
2023-05-11T15:46:57.519Z,89.94
2023-05-11T15:49:31.056Z,89.55
2023-05-11T15:52:02.672Z,90.52
2023-05-11T15:54:35.993Z,89.24
2023-05-11T15:57:07.986Z,88.07
2023-05-11T15:59:39.789Z,88.62
2023-05-11T16:02:11.513Z,87.97
2023-05-11T16:04:44.747Z,87.31
2023-05-11T16:07:16.783Z,87.49
2023-05-11T16:09:48.731Z,86.39
2023-05-11T16:12:20.599Z,86.50
2023-05-11T16:14:52.460Z,86.51
2023-05-11T16:17:24.349Z,85.84
2023-05-11T16:19:59.319Z,86.88
2023-05-11T16:22:31.176Z,86.34
2023-05-11T16:25:02.874Z,85.75
2023-05-11T16:27:34.798Z,85.67
2023-05-11T16:30:21.627Z,85.81
2023-05-11T16:32:55.292Z,85.86
2023-05-11T16:35:29.381Z,85.42
2023-05-11T16:38:02.509Z,85.79
2023-05-11T16:40:34.329Z,85.09
2023-05-11T16:43:06.159Z,86.11
2023-05-11T16:45:37.924Z,85.56
2023-05-11T16:48:09.898Z,85.60
2023-05-11T16:50:43.382Z,85.68
2023-05-11T16:53:15.424Z,86.23
2023-05-11T16:55:47.216Z,86.41
2023-05-11T16:58:19.469Z,87.50
2023-05-11T17:00:51.187Z,86.53
2023-05-11T17:03:23.548Z,87.38
2023-05-11T17:05:57.340Z,87.42
2023-05-11T17:08:29.609Z,87.01
2023-05-11T17:11:01.630Z,87.96
2023-05-11T17:13:33.667Z,87.90
2023-05-11T17:16:05.514Z,87.13
2023-05-11T17:18:38.280Z,88.01
2023-05-11T17:21:11.637Z,87.59
2023-05-11T17:23:43.618Z,88.23
2023-05-11T17:26:16.918Z,88.43
2023-05-11T17:28:48.957Z,88.88
2023-05-11T17:31:20.910Z,89.17
2023-05-11T17:33:52.784Z,88.64
2023-05-11T17:36:29.147Z,89.58
2023-05-11T17:39:01.378Z,88.95
2023-05-11T17:41:33.138Z,88.78
2023-05-11T17:44:05.291Z,89.45
2023-05-11T17:46:36.958Z,88.59
2023-05-11T17:49:08.947Z,89.31
2023-05-11T17:51:42.614Z,88.93
2023-05-11T17:54:14.833Z,87.92
2023-05-11T17:56:46.794Z,88.64
2023-05-11T17:59:21.025Z,88.73
2023-05-11T18:01:53.220Z,88.96
2023-05-11T18:04:25.626Z,89.48
2023-05-11T18:07:00.265Z,89.36
2023-05-11T18:09:31.948Z,89.39
2023-05-11T18:12:04.313Z,89.92
2023-05-11T18:14:36.351Z,89.39
2023-05-11T18:17:08.059Z,89.16
2023-05-11T18:19:39.924Z,88.48
2023-05-11T18:22:13.002Z,89.67
2023-05-11T18:24:44.785Z,89.20
2023-05-11T18:27:16.673Z,89.07
2023-05-11T18:29:48.500Z,88.52
2023-05-11T18:32:20.511Z,89.15
2023-05-11T18:34:52.402Z,88.64
2023-05-11T18:37:25.603Z,89.58
2023-05-11T18:39:57.546Z,89.01
2023-05-11T18:42:29.438Z,88.66
2023-05-11T18:45:01.285Z,88.53
2023-05-11T18:47:34.785Z,89.93
2023-05-11T18:50:07.618Z,91.04
2023-05-11T18:52:40.829Z,90.03
2023-05-11T18:55:12.728Z,90.18
2023-05-11T18:57:44.340Z,90.11
2023-05-11T19:00:18.303Z,90.10
2023-05-11T19:02:51.891Z,90.16
2023-05-11T19:05:25.628Z,90.87
2023-05-11T19:07:58.795Z,89.64
2023-05-11T19:10:33.701Z,89.56
2023-05-11T19:13:05.437Z,90.42
2023-05-11T19:15:37.447Z,90.91
2023-05-11T19:18:10.405Z,90.06
2023-05-11T19:20:43.116Z,89.84
2023-05-11T19:23:16.974Z,90.48
2023-05-11T19:25:48.902Z,91.07
2023-05-11T19:28:20.956Z,91.00
2023-05-11T19:31:00.442Z,90.39
2023-05-11T19:33:32.295Z,90.73
2023-05-11T19:36:04.454Z,91.02
2023-05-11T19:38:38.703Z,90.15
2023-05-11T19:41:10.347Z,90.30
2023-05-11T19:43:40.271Z,90.35
2023-05-11T19:46:12.373Z,90.10
2023-05-11T19:48:44.275Z,90.15
2023-05-11T19:51:16.925Z,90.42
2023-05-11T19:53:50.213Z,89.83
2023-05-11T19:56:22.159Z,90.08
2023-05-11T19:58:54.027Z,89.90
2023-05-11T20:01:26.345Z,89.91
2023-05-11T20:03:58.295Z,89.89
2023-05-11T20:06:29.975Z,90.26
2023-05-11T20:09:02.898Z,90.44
2023-05-11T20:11:34.860Z,90.60
2023-05-11T20:14:06.745Z,90.34
2023-05-11T20:16:38.806Z,91.06
2023-05-11T20:19:10.658Z,91.45
2023-05-11T20:21:42.792Z,91.12
2023-05-11T20:24:15.957Z,90.77
2023-05-11T20:26:47.874Z,91.54
2023-05-11T20:29:19.711Z,90.87
2023-05-11T20:31:51.706Z,90.76
2023-05-11T20:34:23.566Z,90.87
2023-05-11T20:36:55.720Z,90.62
2023-05-11T20:39:29.111Z,90.68
2023-05-11T20:42:04.674Z,90.37
2023-05-11T20:44:36.352Z,89.92
2023-05-11T20:47:09.335Z,90.08
2023-05-11T20:49:41.144Z,90.48
2023-05-11T20:52:14.181Z,90.97
2023-05-11T20:54:48.963Z,91.34
2023-05-11T20:57:20.962Z,91.68
2023-05-11T21:02:27.451Z,91.04
2023-05-11T21:05:02.274Z,90.30
2023-05-11T21:07:34.332Z,89.69
2023-05-11T21:10:07.760Z,89.09
2023-05-11T21:12:39.343Z,89.57
2023-05-11T21:15:12.557Z,89.32
2023-05-11T21:17:45.042Z,88.82
2023-05-11T21:20:18.852Z,88.57
2023-05-11T21:22:50.586Z,88.96
2023-05-11T21:25:23.731Z,88.34
2023-05-11T21:27:56.118Z,89.36
2023-05-11T21:30:28.101Z,89.22
2023-05-11T21:32:59.947Z,88.25
2023-05-11T21:35:34.553Z,88.50
2023-05-11T21:38:06.481Z,89.15
2023-05-11T21:40:39.518Z,89.04
2023-05-11T21:43:13.387Z,88.88
2023-05-11T21:45:47.961Z,88.82
2023-05-11T21:48:19.942Z,89.02
2023-05-11T21:50:57.699Z,88.27
2023-05-11T21:53:30.535Z,88.72
2023-05-11T21:56:03.737Z,89.37
2023-05-11T21:58:35.725Z,89.71
2023-05-11T22:01:08.156Z,90.08
2023-05-11T22:03:40.084Z,89.73
2023-05-11T22:06:12.219Z,89.59
2023-05-11T22:08:44.165Z,89.00
2023-05-11T22:11:17.251Z,89.60
2023-05-11T22:13:48.822Z,89.50
2023-05-11T22:16:20.686Z,90.15
2023-05-11T22:18:52.679Z,89.44
2023-05-11T22:21:26.611Z,89.29
2023-05-11T22:23:59.125Z,89.31
2023-05-11T22:26:32.238Z,88.57
2023-05-11T22:29:04.511Z,88.87
2023-05-11T22:31:36.251Z,88.78
2023-05-11T22:34:08.115Z,89.42
2023-05-11T22:36:39.908Z,89.29
2023-05-11T22:39:12.391Z,88.90
2023-05-11T22:41:45.330Z,88.71
2023-05-11T22:44:17.730Z,88.98
2023-05-11T22:46:49.624Z,88.73
2023-05-11T22:49:21.629Z,88.93
2023-05-11T22:51:56.755Z,88.53
2023-05-11T22:54:28.712Z,88.52
2023-05-11T22:57:03.387Z,88.99
2023-05-11T22:59:35.241Z,88.74
2023-05-11T23:02:08.211Z,89.30
2023-05-11T23:04:40.036Z,88.86
2023-05-11T23:07:12.726Z,89.32
2023-05-11T23:09:44.751Z,88.96
2023-05-11T23:12:18.321Z,89.04
2023-05-11T23:14:50.690Z,88.83
2023-05-11T23:17:22.634Z,89.06
2023-05-11T23:19:54.306Z,88.84
2023-05-11T23:22:26.207Z,89.52
2023-05-11T23:25:00.879Z,90.39
2023-05-11T23:27:33.792Z,91.08
2023-05-11T23:30:05.923Z,91.57
2023-05-11T23:32:38.064Z,90.00
2023-05-11T23:35:11.894Z,89.64
2023-05-11T23:37:43.461Z,89.95
2023-05-11T23:40:16.210Z,89.25
2023-05-11T23:42:49.985Z,89.30
2023-05-11T23:45:22.071Z,89.79
2023-05-11T23:47:53.673Z,89.52
2023-05-11T23:50:25.399Z,90.15
2023-05-11T23:52:57.214Z,89.79
2023-05-11T23:55:29.144Z,89.22
2023-05-11T23:58:02.409Z,89.95
